Time;durP1;ratioP1;P1;durP2;ratioP2;P2;SDS_P1;SDS_P2;PMS_P1;PMS_P2;Temp;Humidity;BMP_temperature;BMP_pressure;BME280_temperature;BME280_humidity;BME280_pressure;Samples;Min_cycle;Max_cycle;Signal;HPM_P1;HPM_P2
2022/03/31 00:01:02;;;;;;;8.48;7.05;;;;;;;8.71;53.68;98788.94;5014119;28;20077;-53
2022/03/31 00:03:30;;;;;;;12.23;7.93;;;;;;;8.70;53.79;98781.75;5004575;28;20054;-51
2022/03/31 00:05:57;;;;;;;10.93;7.38;;;;;;;8.69;53.19;98776.53;4995016;28;20061;-50
2022/03/31 00:08:25;;;;;;;10.75;7.72;;;;;;;8.68;53.94;98781.28;4996603;28;20058;-51
2022/03/31 00:10:54;;;;;;;10.40;7.50;;;;;;;8.70;53.87;98775.38;5014568;28;20060;-53
2022/03/31 00:13:23;;;;;;;10.18;7.57;;;;;;;8.72;53.75;98785.00;5012686;28;20491;-53
2022/03/31 00:15:53;;;;;;;11.45;8.20;;;;;;;8.73;54.26;98780.25;5013564;28;20068;-52
2022/03/31 00:18:22;;;;;;;12.30;8.05;;;;;;;8.71;53.40;98777.00;4997306;28;20054;-52
2022/03/31 00:20:50;;;;;;;9.40;7.47;;;;;;;8.71;53.95;98786.16;5000738;28;20058;-53
2022/03/31 00:23:20;;;;;;;11.82;8.15;;;;;;;8.72;53.99;98773.09;5012056;28;20599;-50
2022/03/31 00:25:47;;;;;;;9.98;7.28;;;;;;;8.74;53.55;98781.88;5006390;28;20054;-50
2022/03/31 00:28:14;;;;;;;9.82;7.45;;;;;;;8.77;53.81;98780.38;5007411;28;20077;-51
2022/03/31 00:30:41;;;;;;;10.90;8.15;;;;;;;8.81;53.92;98776.56;5008299;28;20058;-51
2022/03/31 00:33:09;;;;;;;16.35;7.53;;;;;;;8.84;52.86;98775.88;5013478;28;20064;-53
2022/03/31 00:35:38;;;;;;;11.07;7.72;;;;;;;8.85;53.35;98779.47;5014032;28;20479;-52
2022/03/31 00:38:05;;;;;;;10.50;7.63;;;;;;;8.87;53.21;98780.72;5004588;28;20054;-55
2022/03/31 00:40:33;;;;;;;10.13;7.50;;;;;;;8.91;53.33;98773.34;5005794;28;20479;-52
2022/03/31 00:43:01;;;;;;;11.77;7.68;;;;;;;8.92;53.08;98774.97;5006022;28;20054;-52
2022/03/31 00:45:34;;;;;;;12.00;7.75;;;;;;;8.92;53.15;98774.97;5009176;28;20054;-53
2022/03/31 00:48:02;;;;;;;11.45;7.70;;;;;;;8.91;53.30;98776.13;5013629;28;20406;-50
2022/03/31 00:50:31;;;;;;;10.25;7.97;;;;;;;8.92;52.41;98766.66;4999252;28;20483;-55
2022/03/31 00:52:59;;;;;;;10.27;7.78;;;;;;;8.95;53.17;98770.69;5005419;28;20056;-52
2022/03/31 00:55:27;;;;;;;12.43;8.18;;;;;;;8.96;53.42;98765.94;4996123;28;20058;-55
2022/03/31 00:57:55;;;;;;;11.48;7.82;;;;;;;8.92;52.51;98766.66;4994421;28;20069;-50
2022/03/31 01:00:23;;;;;;;9.27;7.65;;;;;;;8.88;53.51;98771.25;5010721;28;20050;-52
2022/03/31 01:02:50;;;;;;;11.65;8.20;;;;;;;8.89;54.00;98769.28;5004324;28;20054;-54
2022/03/31 01:05:18;;;;;;;8.95;7.30;;;;;;;8.90;54.20;98759.78;4994338;28;20053;-51
2022/03/31 01:07:48;;;;;;;12.98;9.23;;;;;;;8.88;55.20;98751.81;5006005;28;20415;-50
2022/03/31 01:10:17;;;;;;;9.60;7.53;;;;;;;8.88;55.07;98753.78;5013142;28;20478;-55
2022/03/31 01:12:45;;;;;;;11.30;8.30;;;;;;;8.87;55.38;98758.53;5013719;28;20053;-56
2022/03/31 01:15:18;;;;;;;11.32;8.60;;;;;;;8.93;55.80;98750.78;5006898;28;20061;-50
2022/03/31 01:17:47;;;;;;;12.55;9.18;;;;;;;8.89;55.55;98750.66;5013756;28;20421;-53
2022/03/31 01:20:17;;;;;;;14.15;9.38;;;;;;;8.82;55.76;98744.88;5006258;28;20394;-54
2022/03/31 01:22:45;;;;;;;12.48;9.32;;;;;;;8.81;56.05;98746.03;5001466;28;20054;-53
2022/03/31 01:25:15;;;;;;;13.07;9.38;;;;;;;8.81;56.99;98743.25;5001163;28;20054;-53
2022/03/31 01:27:45;;;;;;;11.95;9.02;;;;;;;8.84;57.21;98741.72;5004887;28;20049;-53
2022/03/31 01:30:15;;;;;;;11.60;9.15;;;;;;;8.86;56.68;98737.47;5013124;28;20065;-50
2022/03/31 01:32:43;;;;;;;11.60;9.18;;;;;;;8.84;56.94;98736.19;5013234;28;20061;-50
2022/03/31 01:35:11;;;;;;;12.02;9.10;;;;;;;8.81;56.99;98742.44;5012630;28;20418;-55
2022/03/31 01:37:38;;;;;;;13.70;10.45;;;;;;;8.80;58.60;98735.25;5012931;28;20379;-50
2022/03/31 01:40:10;;;;;;;11.45;8.93;;;;;;;8.76;57.29;98740.72;5007606;28;20057;-52
2022/03/31 01:42:39;;;;;;;13.23;9.38;;;;;;;8.79;58.10;98733.66;4993426;28;20050;-51
2022/03/31 01:45:10;;;;;;;13.52;9.38;;;;;;;8.79;58.13;98734.44;4998151;28;20057;-50
2022/03/31 01:47:39;;;;;;;13.25;9.88;;;;;;;8.79;57.72;98728.91;5007922;28;20061;-47
2022/03/31 01:50:09;;;;;;;12.45;10.45;;;;;;;8.78;58.13;98727.28;5010832;28;20061;-49
2022/03/31 01:52:36;;;;;;;12.70;9.82;;;;;;;8.78;58.04;98726.47;4993342;28;20506;-52
2022/03/31 01:55:05;;;;;;;12.85;10.75;;;;;;;8.78;58.53;98726.47;5007613;28;20058;-52
2022/03/31 01:57:32;;;;;;;12.25;10.00;;;;;;;8.71;57.51;98721.47;5002916;28;20061;-53
2022/03/31 02:00:02;;;;;;;12.10;10.00;;;;;;;8.70;58.09;98719.88;5010847;28;20490;-55
2022/03/31 02:02:30;;;;;;;13.75;9.50;;;;;;;8.71;58.35;98716.75;4993750;28;20054;-49
2022/03/31 02:04:57;;;;;;;13.38;9.50;;;;;;;8.68;59.24;98716.63;4993198;28;20057;-50
2022/03/31 02:07:25;;;;;;;16.13;10.45;;;;;;;8.67;59.07;98715.84;4996971;28;20506;-50
2022/03/31 02:09:52;;;;;;;12.23;10.38;;;;;;;8.66;59.60;98710.63;5013036;28;20061;-54
2022/03/31 02:12:19;;;;;;;14.48;9.38;;;;;;;8.67;59.16;98706.66;5012410;28;20060;-53
2022/03/31 02:14:46;;;;;;;11.80;8.82;;;;;;;8.64;59.48;98710.97;5012273;28;20149;-51
2022/03/31 02:17:15;;;;;;;12.23;10.52;;;;;;;8.57;59.82;98701.56;5012632;28;20414;-53
2022/03/31 02:19:43;;;;;;;12.57;10.85;;;;;;;8.56;60.80;98700.75;5012821;28;20062;-53
2022/03/31 02:22:10;;;;;;;14.00;10.65;;;;;;;8.54;60.67;98701.09;5006012;28;20049;-50
2022/03/31 02:24:38;;;;;;;16.40;12.52;;;;;;;8.49;60.16;98703.31;4993958;28;20065;-50
2022/03/31 02:27:06;;;;;;;13.32;10.07;;;;;;;8.48;60.23;98705.28;5010647;28;20045;-52
2022/03/31 02:29:33;;;;;;;14.65;10.88;;;;;;;8.50;60.21;98702.13;5011365;28;20065;-50
2022/03/31 02:32:01;;;;;;;16.30;11.32;;;;;;;8.49;60.07;98697.75;5011756;28;20061;-53
2022/03/31 02:34:29;;;;;;;14.07;10.90;;;;;;;8.49;59.60;98693.00;5010649;28;20060;-51
2022/03/31 02:36:57;;;;;;;16.95;11.80;;;;;;;8.51;59.69;98693.47;4993808;28;20070;-50
2022/03/31 02:39:24;;;;;;;13.05;10.13;;;;;;;8.53;59.93;98699.50;4992604;28;20050;-49
2022/03/31 02:41:53;;;;;;;14.00;10.85;;;;;;;8.54;60.20;98691.97;5008043;28;20058;-51
2022/03/31 02:44:20;;;;;;;16.23;11.77;;;;;;;8.51;61.21;98690.69;5011229;28;20053;-54
2022/03/31 02:46:48;;;;;;;13.95;10.75;;;;;;;8.49;60.97;98684.69;5012448;28;20502;-54
2022/03/31 02:49:15;;;;;;;14.20;10.98;;;;;;;8.51;60.37;98682.38;5012197;28;20411;-55
2022/03/31 02:51:44;;;;;;;14.10;10.35;;;;;;;8.49;59.94;98676.38;5011662;28;20053;-51
2022/03/31 02:56:56;;;;;;;12.25;10.23;;;;;;;8.41;60.76;98674.50;4998636;28;20062;-55
2022/03/31 02:59:24;;;;;;;15.77;11.50;;;;;;;8.43;61.18;98668.63;5005772;28;20407;-52
2022/03/31 03:01:52;;;;;;;13.00;10.40;;;;;;;8.47;61.25;98669.53;5012039;28;20065;-50
2022/03/31 03:04:19;;;;;;;13.27;11.30;;;;;;;8.47;61.34;98664.78;5012107;28;20148;-51
2022/03/31 03:06:48;;;;;;;14.43;11.43;;;;;;;8.40;61.44;98661.75;5011485;28;20069;-54
2022/03/31 03:09:15;;;;;;;13.45;10.18;;;;;;;8.37;61.22;98662.44;5012292;28;20050;-52
2022/03/31 03:11:43;;;;;;;15.80;11.70;;;;;;;8.31;61.42;98663.81;5014386;28;20049;-50
2022/03/31 03:14:12;;;;;;;14.30;11.50;;;;;;;8.37;61.99;98668.00;5011510;28;20054;-50
2022/03/31 03:16:39;;;;;;;13.50;11.23;;;;;;;8.38;62.12;98658.53;5005417;28;20065;-50
2022/03/31 03:19:07;;;;;;;12.63;10.93;;;;;;;8.41;62.47;98651.50;4997048;28;20054;-50
2022/03/31 03:21:36;;;;;;;16.92;11.32;;;;;;;8.40;61.96;98666.47;5014071;28;20080;-51
2022/03/31 03:24:05;;;;;;;17.42;11.23;;;;;;;8.35;62.26;98653.66;5015170;28;20050;-50
2022/03/31 03:26:32;;;;;;;14.82;11.15;;;;;;;8.36;61.93;98660.84;5011763;28;20050;-50
2022/03/31 03:29:00;;;;;;;16.55;12.35;;;;;;;8.37;61.76;98662.44;5014586;28;20061;-51
2022/03/31 03:31:27;;;;;;;16.90;12.52;;;;;;;8.37;62.25;98651.34;5014692;28;20057;-51
2022/03/31 03:33:55;;;;;;;14.68;12.48;;;;;;;8.22;62.54;98654.78;5015304;28;20061;-51
2022/03/31 03:36:22;;;;;;;15.10;11.93;;;;;;;8.26;61.67;98650.97;5015333;28;20402;-50
2022/03/31 03:38:49;;;;;;;15.60;12.02;;;;;;;8.26;62.33;98656.53;5014972;28;20053;-50
2022/03/31 03:41:21;;;;;;;14.88;11.07;;;;;;;8.26;61.97;98647.41;5014938;28;20054;-51
2022/03/31 03:43:48;;;;;;;13.60;10.88;;;;;;;8.26;62.42;98644.63;5009354;28;20061;-50
2022/03/31 03:46:16;;;;;;;12.75;11.02;;;;;;;8.24;63.29;98646.94;5013162;28;20065;-50
2022/03/31 03:48:43;;;;;;;17.08;12.98;;;;;;;8.24;62.95;98646.94;4995556;28;20054;-49
2022/03/31 03:51:11;;;;;;;16.98;12.35;;;;;;;8.28;63.10;98642.31;4995925;28;20061;-49
2022/03/31 03:53:38;;;;;;;14.10;11.95;;;;;;;8.26;63.22;98642.66;4994959;28;20057;-52
2022/03/31 03:56:05;;;;;;;14.07;11.30;;;;;;;8.25;63.22;98649.38;5004099;28;20058;-50
2022/03/31 03:58:34;;;;;;;13.55;11.70;;;;;;;8.22;63.03;98649.25;5014361;28;20057;-50
2022/03/31 04:01:02;;;;;;;13.93;11.93;;;;;;;8.21;63.74;98653.16;5008930;28;20399;-51
2022/03/31 04:03:29;;;;;;;16.63;11.77;;;;;;;8.21;63.67;98648.44;5012529;28;20505;-51
2022/03/31 04:05:56;;;;;;;14.80;11.55;;;;;;;8.20;64.07;98641.25;5000774;28;20056;-50
2022/03/31 04:08:24;;;;;;;14.90;11.80;;;;;;;8.17;64.17;98643.91;5011172;28;20061;-51
2022/03/31 04:10:52;;;;;;;14.93;12.65;;;;;;;8.16;63.81;98633.97;5006252;28;20133;-51
2022/03/31 04:13:20;;;;;;;14.18;11.35;;;;;;;8.13;64.30;98641.81;5013553;28;20046;-52
2022/03/31 04:15:48;;;;;;;16.52;12.68;;;;;;;8.12;64.50;98634.66;5001946;28;20054;-55
2022/03/31 04:18:16;;;;;;;14.45;11.85;;;;;;;8.12;64.74;98642.97;5013991;28;20064;-53
2022/03/31 04:20:43;;;;;;;14.68;11.95;;;;;;;8.07;64.79;98634.88;5000420;28;20054;-54
2022/03/31 04:23:11;;;;;;;15.77;12.45;;;;;;;7.99;64.58;98633.00;5009772;28;20517;-50
2022/03/31 04:25:38;;;;;;;17.02;12.93;;;;;;;7.98;64.57;98634.19;5013281;28;20049;-51
2022/03/31 04:28:06;;;;;;;14.10;11.25;;;;;;;8.02;64.29;98635.09;4997256;28;20050;-51
2022/03/31 04:30:34;;;;;;;15.93;12.60;;;;;;;7.99;64.50;98634.97;5013449;28;20050;-50
2022/03/31 04:33:03;;;;;;;17.13;12.35;;;;;;;7.97;64.62;98638.09;5014089;28;20072;-50
2022/03/31 04:35:30;;;;;;;14.10;11.98;;;;;;;7.96;64.69;98635.66;4995243;28;20438;-51
2022/03/31 04:37:57;;;;;;;16.33;13.52;;;;;;;7.98;64.39;98639.72;5007571;28;20057;-50
2022/03/31 04:40:25;;;;;;;22.33;17.35;;;;;;;7.99;64.59;98635.78;5013860;28;20054;-52
2022/03/31 04:42:52;;;;;;;16.25;13.88;;;;;;;8.01;64.88;98649.31;5013380;28;20058;-50
2022/03/31 04:45:20;;;;;;;17.73;14.30;;;;;;;8.03;65.71;98639.50;5012856;28;20054;-50
2022/03/31 04:47:50;;;;;;;17.25;12.20;;;;;;;8.08;65.15;98635.69;5007429;28;20491;-51
2022/03/31 04:50:18;;;;;;;17.88;13.07;;;;;;;8.06;65.15;98635.22;5013130;28;20050;-52
2022/03/31 04:52:46;;;;;;;17.15;14.27;;;;;;;8.09;65.12;98640.88;4997786;28;20065;-50
2022/03/31 04:55:13;;;;;;;17.08;13.45;;;;;;;8.06;65.43;98638.81;5010486;28;20050;-52
2022/03/31 04:57:42;;;;;;;19.38;12.85;;;;;;;8.07;65.67;98637.66;5011322;28;20058;-52
2022/03/31 05:00:11;;;;;;;18.55;12.77;;;;;;;8.06;65.19;98636.03;5010143;28;20054;-50
2022/03/31 05:02:38;;;;;;;16.83;14.35;;;;;;;8.07;66.13;98639.63;5008687;28;20065;-50
2022/03/31 05:05:07;;;;;;;17.98;13.55;;;;;;;8.07;66.21;98637.66;4998492;28;20041;-50
2022/03/31 05:07:37;;;;;;;17.42;14.60;;;;;;;8.08;66.27;98628.19;5012290;28;20053;-56
2022/03/31 05:10:05;;;;;;;16.17;13.18;;;;;;;8.11;66.43;98630.28;5012073;28;20046;-50
2022/03/31 05:12:32;;;;;;;17.38;14.65;;;;;;;8.11;66.04;98635.00;5003835;28;20058;-54
2022/03/31 05:14:59;;;;;;;19.17;14.57;;;;;;;8.16;65.50;98636.75;5011011;28;20422;-51
2022/03/31 05:17:32;;;;;;;19.58;15.55;;;;;;;8.17;66.40;98641.13;5010330;28;20057;-50
2022/03/31 05:20:27;;;;;;;17.13;14.40;;;;;;;8.19;66.31;98633.28;5012024;28;20054;-51
2022/03/31 05:22:57;;;;;;;17.02;14.65;;;;;;;8.22;67.17;98630.63;4995545;28;20046;-51
2022/03/31 05:25:24;;;;;;;16.48;14.50;;;;;;;8.26;66.56;98628.00;4994471;28;20047;-50
2022/03/31 05:27:52;;;;;;;18.35;15.32;;;;;;;8.29;66.41;98630.91;5012062;28;20392;-50
2022/03/31 05:30:20;;;;;;;17.88;14.73;;;;;;;8.31;66.91;98630.53;5011299;28;20050;-53
2022/03/31 05:32:48;;;;;;;17.52;14.93;;;;;;;8.29;66.87;98633.66;5002179;28;20057;-53
2022/03/31 05:35:16;;;;;;;18.38;16.35;;;;;;;8.37;66.90;98636.66;5012179;28;20050;-53
2022/03/31 05:37:43;;;;;;;19.75;17.23;;;;;;;8.39;66.97;98631.59;5011766;28;20053;-50
2022/03/31 05:40:14;;;;;;;18.60;14.07;;;;;;;8.41;66.06;98624.56;5013050;28;20046;-50
2022/03/31 05:42:42;;;;;;;18.52;15.70;;;;;;;8.46;66.36;98626.28;5011765;28;20057;-50
2022/03/31 05:45:11;;;;;;;14.93;13.25;;;;;;;8.47;66.26;98628.72;5011774;28;20046;-50
2022/03/31 05:47:48;;;;;;;20.50;16.83;;;;;;;8.47;66.08;98623.19;5009646;28;20118;-50
2022/03/31 05:50:16;;;;;;;17.13;14.60;;;;;;;8.47;66.35;98622.38;5011845;28;20046;-50
2022/03/31 05:52:44;;;;;;;16.73;14.43;;;;;;;8.41;66.13;98620.97;5010944;28;20061;-53
2022/03/31 05:55:14;;;;;;;15.65;13.63;;;;;;;8.38;66.19;98625.25;5010148;28;20046;-52
2022/03/31 05:57:42;;;;;;;18.52;14.68;;;;;;;8.42;66.25;98623.41;5012569;28;20065;-51
2022/03/31 06:00:12;;;;;;;18.23;14.00;;;;;;;8.38;66.34;98625.25;5010462;28;20062;-52
2022/03/31 06:02:40;;;;;;;15.38;13.20;;;;;;;8.39;65.67;98620.50;5003652;28;20495;-50
2022/03/31 06:05:08;;;;;;;16.27;13.75;;;;;;;8.38;66.02;98616.09;5001785;28;20065;-51
2022/03/31 06:07:36;;;;;;;18.00;14.35;;;;;;;8.39;66.00;98624.06;5003447;28;20062;-51
2022/03/31 06:10:04;;;;;;;19.17;14.23;;;;;;;8.40;66.16;98630.41;4999753;28;20050;-51
2022/03/31 06:12:33;;;;;;;17.25;13.40;;;;;;;8.39;65.95;98621.28;5008197;28;20491;-50
2022/03/31 06:15:00;;;;;;;18.02;15.68;;;;;;;8.41;66.11;98619.00;5001761;28;20051;-54
2022/03/31 06:17:27;;;;;;;17.23;15.30;;;;;;;8.44;67.17;98623.88;5007641;28;20054;-51
2022/03/31 06:19:55;;;;;;;19.40;14.25;;;;;;;8.49;66.46;98620.88;5001542;28;20062;-53
2022/03/31 06:22:23;;;;;;;18.10;14.90;;;;;;;8.52;66.01;98624.91;5009218;28;20060;-52
2022/03/31 06:24:50;;;;;;;17.75;14.95;;;;;;;8.58;67.13;98628.28;5006969;28;20042;-51
2022/03/31 06:27:18;;;;;;;18.15;14.15;;;;;;;8.59;66.19;98618.78;5007062;28;20053;-52
2022/03/31 06:29:48;;;;;;;19.75;14.65;;;;;;;8.63;66.44;98617.75;5010959;28;20054;-52
2022/03/31 06:32:16;;;;;;;20.08;14.82;;;;;;;8.67;66.24;98621.47;5010633;28;20057;-56
2022/03/31 06:34:43;;;;;;;16.33;14.23;;;;;;;8.74;66.82;98613.34;5012703;28;20380;-53
2022/03/31 06:37:11;;;;;;;18.35;15.65;;;;;;;8.82;65.97;98628.28;5012344;28;20061;-54
2022/03/31 06:39:39;;;;;;;19.38;16.58;;;;;;;8.90;65.81;98630.13;4992727;28;20050;-54
2022/03/31 06:42:06;;;;;;;24.17;15.82;;;;;;;8.97;65.60;98623.97;5000960;28;20046;-54
2022/03/31 06:44:34;;;;;;;19.70;15.98;;;;;;;9.04;65.73;98628.94;5010471;28;20050;-51
2022/03/31 06:47:02;;;;;;;18.58;14.93;;;;;;;9.08;65.02;98624.31;5016051;28;20061;-52
2022/03/31 06:49:30;;;;;;;16.00;13.65;;;;;;;9.11;65.06;98618.88;5015582;28;20058;-54
2022/03/31 06:51:57;;;;;;;19.15;14.57;;;;;;;9.17;64.78;98627.75;5015212;28;20058;-52
2022/03/31 06:54:26;;;;;;;15.70;13.73;;;;;;;9.19;64.99;98622.66;5009741;28;20050;-52
2022/03/31 06:56:55;;;;;;;15.40;13.47;;;;;;;9.22;64.55;98619.19;5014235;28;20053;-52
2022/03/31 06:59:22;;;;;;;19.02;13.63;;;;;;;9.35;64.27;98623.53;4997280;28;20731;-51
2022/03/31 07:01:49;;;;;;;16.08;13.48;;;;;;;9.47;64.05;98627.44;5000002;28;20475;-54
2022/03/31 07:04:18;;;;;;;15.48;13.45;;;;;;;9.61;64.15;98619.50;5010800;28;20091;-50
2022/03/31 07:06:46;;;;;;;16.03;13.97;;;;;;;9.68;63.72;98614.16;5008354;28;20042;-49
2022/03/31 07:09:13;;;;;;;15.98;14.27;;;;;;;9.79;63.40;98610.88;4993094;28;20081;-52
2022/03/31 07:11:40;;;;;;;16.08;11.98;;;;;;;9.83;62.89;98615.38;5006951;28;20510;-52
2022/03/31 07:14:08;;;;;;;15.73;13.27;;;;;;;9.82;62.55;98607.38;5011766;28;20053;-53
2022/03/31 07:16:35;;;;;;;16.85;13.02;;;;;;;9.89;62.57;98611.19;5010844;28;20050;-53
2022/03/31 07:19:03;;;;;;;15.90;12.65;;;;;;;9.99;62.50;98611.81;5011135;28;21688;-54
2022/03/31 07:21:32;;;;;;;17.00;12.93;;;;;;;10.04;62.46;98609.59;5011009;28;20061;-51
2022/03/31 07:24:00;;;;;;;16.57;12.43;;;;;;;10.08;61.66;98607.72;5011348;28;20054;-52
2022/03/31 07:26:28;;;;;;;16.23;12.90;;;;;;;10.10;61.65;98610.94;5011557;28;20196;-53
2022/03/31 07:28:55;;;;;;;15.77;12.63;;;;;;;10.18;61.72;98613.91;5011255;28;20080;-52
2022/03/31 07:31:23;;;;;;;16.67;12.57;;;;;;;10.24;61.46;98615.25;5012655;28;20058;-52
2022/03/31 07:33:50;;;;;;;15.85;12.73;;;;;;;10.23;61.14;98610.88;5012153;28;20058;-50
2022/03/31 07:36:18;;;;;;;17.35;12.63;;;;;;;10.31;61.06;98607.94;5005372;28;20050;-52
2022/03/31 07:38:47;;;;;;;15.63;11.52;;;;;;;10.45;60.03;98615.81;5001090;28;20057;-47
2022/03/31 07:41:16;;;;;;;16.77;12.50;;;;;;;10.52;59.78;98615.19;5008865;28;20056;-50
2022/03/31 07:43:44;;;;;;;17.05;11.38;;;;;;;10.62;58.48;98608.28;5010448;28;20053;-49
2022/03/31 07:46:11;;;;;;;15.63;11.25;;;;;;;10.60;58.42;98605.84;5012954;28;20455;-52
2022/03/31 07:48:39;;;;;;;14.90;11.23;;;;;;;10.69;58.49;98606.47;5012318;28;20057;-48
2022/03/31 07:51:07;;;;;;;15.57;11.88;;;;;;;10.67;57.63;98608.03;5011721;28;20407;-51
2022/03/31 07:53:35;;;;;;;15.48;11.95;;;;;;;10.75;57.89;98605.03;5010407;28;20505;-49
2022/03/31 07:56:05;;;;;;;14.77;11.60;;;;;;;10.83;57.93;98602.41;5011560;28;20061;-49
2022/03/31 07:58:33;;;;;;;17.35;13.15;;;;;;;10.79;58.45;98591.19;5008589;28;20061;-48
2022/03/31 08:01:01;;;;;;;16.17;11.85;;;;;;;10.88;58.26;98591.81;5009353;28;20057;-48
2022/03/31 08:03:28;;;;;;;18.35;12.45;;;;;;;10.97;57.94;98588.81;4973435;28;20069;-47
2022/03/31 08:05:56;;;;;;;14.40;11.43;;;;;;;11.10;57.76;98589.50;4971737;28;20050;-49
2022/03/31 08:08:23;;;;;;;13.45;11.25;;;;;;;11.19;57.14;98590.09;4963074;28;20062;-49
2022/03/31 08:10:51;;;;;;;16.77;12.35;;;;;;;11.25;57.37;98587.84;4968661;28;20807;-48
2022/03/31 08:13:26;;;;;;;18.20;13.75;;;;;;;11.32;56.76;98586.00;4970494;28;20047;-48
2022/03/31 08:15:54;;;;;;;16.90;12.38;;;;;;;11.34;56.68;98589.25;4971604;28;20047;-50
2022/03/31 08:18:25;;;;;;;17.30;12.27;;;;;;;11.38;57.07;98587.34;4957345;28;20078;-50
2022/03/31 08:20:54;;;;;;;16.50;12.70;;;;;;;11.59;56.77;98591.75;4954711;28;20498;-52
2022/03/31 08:23:21;;;;;;;15.20;11.05;;;;;;;11.71;56.39;98588.78;4958041;28;20074;-49
2022/03/31 08:25:49;;;;;;;15.25;11.40;;;;;;;11.95;55.57;98587.69;4966522;28;20057;-48
2022/03/31 08:28:16;;;;;;;13.93;10.98;;;;;;;12.07;54.11;98588.69;4971069;28;20058;-48
2022/03/31 08:30:45;;;;;;;15.48;10.82;;;;;;;12.23;53.98;98588.59;4960859;28;20062;-52
2022/03/31 08:33:12;;;;;;;16.00;11.63;;;;;;;12.40;54.55;98588.06;4969172;28;20062;-53
2022/03/31 08:35:40;;;;;;;13.98;10.73;;;;;;;12.70;53.70;98582.56;4970648;28;20475;-52
2022/03/31 08:38:07;;;;;;;16.10;12.05;;;;;;;12.89;53.68;98578.06;4971341;28;20522;-52
2022/03/31 08:40:36;;;;;;;13.98;10.57;;;;;;;13.02;52.41;98584.25;4957376;28;20055;-49
2022/03/31 08:43:03;;;;;;;16.48;12.35;;;;;;;13.04;52.53;98574.31;4968257;28;20062;-48
2022/03/31 08:45:36;;;;;;;13.55;10.13;;;;;;;13.00;51.61;98588.22;4970386;28;20067;-47
2022/03/31 08:48:07;;;;;;;17.38;11.38;;;;;;;12.92;51.77;98588.50;4969112;28;20487;-50
2022/03/31 08:50:36;;;;;;;14.65;10.88;;;;;;;12.81;51.97;98593.94;4964368;28;20437;-49
2022/03/31 08:53:03;;;;;;;13.23;10.05;;;;;;;12.69;51.21;98588.56;4969909;28;20510;-51
2022/03/31 08:55:31;;;;;;;14.57;10.60;;;;;;;12.59;51.51;98596.38;4957453;28;20059;-50
2022/03/31 08:58:01;;;;;;;18.00;11.40;;;;;;;12.77;52.74;98602.25;4967623;28;20390;-52
2022/03/31 09:00:29;;;;;;;14.40;10.80;;;;;;;12.94;53.02;98588.94;4971844;28;20414;-50
2022/03/31 09:02:59;;;;;;;15.95;10.20;;;;;;;12.99;52.79;98595.00;5000427;28;20062;-52
2022/03/31 09:05:34;;;;;;;15.55;11.40;;;;;;;12.88;52.61;98594.03;5002009;28;20061;-54
2022/03/31 09:08:05;;;;;;;17.00;12.73;;;;;;;12.72;51.91;98601.75;5007522;28;20050;-51
2022/03/31 09:10:34;;;;;;;15.05;10.18;;;;;;;12.50;51.89;98598.63;5009612;28;20065;-50
2022/03/31 09:13:03;;;;;;;17.27;10.77;;;;;;;12.30;52.58;98597.06;5008982;28;20101;-51
2022/03/31 09:15:32;;;;;;;14.32;10.63;;;;;;;12.19;52.43;98600.47;5009683;28;20062;-50
2022/03/31 09:18:00;;;;;;;15.77;12.43;;;;;;;12.10;52.99;98593.53;5009208;28;20057;-49
2022/03/31 09:20:38;;;;;;;15.90;12.85;;;;;;;12.20;52.78;98592.94;5006834;28;20064;-48
2022/03/31 09:23:06;;;;;;;15.57;11.57;;;;;;;12.28;53.62;98588.25;5006734;28;20045;-49
2022/03/31 09:25:34;;;;;;;18.00;13.23;;;;;;;12.33;52.06;98585.19;5008114;28;20057;-54
2022/03/31 09:28:12;;;;;;;15.77;13.15;;;;;;;12.42;50.97;98582.94;5007794;28;20057;-51
2022/03/31 09:30:51;;;;;;;20.27;13.18;;;;;;;12.39;51.26;98583.69;5006714;28;20130;-50
2022/03/31 09:33:32;;;;;;;16.85;11.50;;;;;;;12.36;50.05;98584.41;5008804;28;20394;-51
2022/03/31 09:36:04;;;;;;;17.13;12.43;;;;;;;12.64;51.45;98580.47;5007749;28;20133;-48
2022/03/31 09:38:35;;;;;;;16.52;13.05;;;;;;;12.92;50.38;98574.53;5008012;28;20153;-53
2022/03/31 09:41:03;;;;;;;18.70;12.98;;;;;;;13.21;50.55;98578.53;5008639;28;20050;-50
2022/03/31 09:43:41;;;;;;;16.92;13.00;;;;;;;13.45;49.49;98573.69;4989992;28;20054;-51
2022/03/31 09:46:21;;;;;;;18.20;13.85;;;;;;;13.61;47.79;98579.88;5006573;28;20053;-50
2022/03/31 09:48:51;;;;;;;19.08;14.40;;;;;;;13.79;48.26;98578.06;5008193;28;20058;-48
2022/03/31 09:51:21;;;;;;;17.67;14.50;;;;;;;13.98;47.25;98576.28;5008831;28;20148;-49
2022/03/31 09:53:51;;;;;;;17.85;13.45;;;;;;;13.95;47.09;98577.84;5009201;28;20054;-48
2022/03/31 09:56:20;;;;;;;19.42;13.82;;;;;;;14.02;46.97;98577.91;5005020;28;20843;-49
2022/03/31 09:58:48;;;;;;;19.27;13.55;;;;;;;13.91;46.90;98584.59;5007180;28;20049;-52
2022/03/31 10:01:17;;;;;;;17.85;13.30;;;;;;;13.85;46.14;98577.75;5007014;28;20069;-50
2022/03/31 10:03:45;;;;;;;18.45;13.35;;;;;;;13.93;46.53;98582.22;4989876;28;20054;-49
2022/03/31 10:06:14;;;;;;;19.33;14.85;;;;;;;13.91;46.72;98576.22;5000066;28;20046;-51
2022/03/31 10:08:45;;;;;;;17.48;13.57;;;;;;;13.83;46.95;98574.53;5009551;28;20077;-49
2022/03/31 10:11:13;;;;;;;17.35;13.85;;;;;;;13.88;47.09;98579.75;5008252;28;20062;-49
2022/03/31 10:13:46;;;;;;;17.38;13.98;;;;;;;13.91;46.70;98571.41;5006942;28;20061;-50
2022/03/31 10:16:16;;;;;;;17.08;13.48;;;;;;;14.01;46.69;98561.53;5000805;28;20081;-50
2022/03/31 10:18:46;;;;;;;19.63;13.70;;;;;;;14.06;46.29;98563.97;4998795;28;20065;-49
2022/03/31 10:21:26;;;;;;;18.23;14.73;;;;;;;14.15;46.28;98566.44;5007292;28;20053;-49
2022/03/31 10:26:40;;;;;;;16.05;13.77;;;;;;;14.48;46.31;98564.75;5016020;28;20050;-53
2022/03/31 10:29:11;;;;;;;18.42;13.98;;;;;;;14.86;44.65;98557.84;5015859;28;20061;-52
2022/03/31 10:31:40;;;;;;;17.80;14.23;;;;;;;15.23;43.81;98551.25;5014301;28;20053;-49
2022/03/31 10:34:10;;;;;;;21.63;16.33;;;;;;;15.35;43.65;98544.50;5013207;28;20058;-50
2022/03/31 10:36:44;;;;;;;18.05;13.00;;;;;;;15.41;42.61;98546.56;5008152;28;20481;-50
2022/03/31 10:39:19;;;;;;;16.92;14.10;;;;;;;15.40;43.47;98550.53;5008969;28;20386;-54
2022/03/31 10:41:47;;;;;;;17.88;13.55;;;;;;;15.51;42.94;98544.97;5012842;28;20054;-51
2022/03/31 10:44:19;;;;;;;21.10;18.00;;;;;;;15.51;43.29;98544.97;5001376;28;20057;-49
2022/03/31 10:46:59;;;;;;;20.30;14.50;;;;;;;15.50;43.30;98543.38;5008236;28;20054;-50
2022/03/31 10:49:26;;;;;;;19.40;13.30;;;;;;;15.26;42.50;98539.25;5004436;28;20054;-52
2022/03/31 10:51:54;;;;;;;17.67;14.23;;;;;;;14.92;43.77;98542.28;5009360;28;20045;-51
2022/03/31 10:54:29;;;;;;;15.75;14.02;;;;;;;14.90;43.23;98541.06;5013837;28;20068;-49
2022/03/31 10:57:05;;;;;;;16.80;14.38;;;;;;;14.58;43.13;98548.06;5002685;28;20056;-50
2022/03/31 10:59:32;;;;;;;16.73;13.48;;;;;;;14.62;43.49;98534.06;5011828;28;20061;-52
2022/03/31 11:02:08;;;;;;;19.35;15.07;;;;;;;14.52;43.50;98538.38;5009979;28;20073;-51
2022/03/31 11:04:46;;;;;;;17.50;13.85;;;;;;;14.55;43.25;98529.22;5010371;28;20051;-49
2022/03/31 11:07:15;;;;;;;19.38;15.43;;;;;;;14.63;43.77;98520.88;5008668;28;20065;-49
2022/03/31 11:09:46;;;;;;;16.15;13.27;;;;;;;14.70;43.35;98526.50;5015720;28;20049;-52
2022/03/31 11:12:28;;;;;;;18.95;15.35;;;;;;;14.75;42.80;98517.75;5015214;28;20057;-55
2022/03/31 11:14:58;;;;;;;18.23;15.68;;;;;;;14.61;43.36;98527.69;5012662;28;20486;-50
2022/03/31 11:17:25;;;;;;;21.38;15.18;;;;;;;14.56;44.30;98519.63;5005513;28;20065;-50
2022/03/31 11:19:55;;;;;;;18.48;15.15;;;;;;;14.34;45.13;98526.22;4995780;28;20446;-54
2022/03/31 11:22:23;;;;;;;22.75;16.50;;;;;;;14.01;46.01;98527.94;5006972;28;20062;-53
2022/03/31 11:24:54;;;;;;;19.95;16.25;;;;;;;14.07;45.84;98518.00;5012786;28;20450;-50
2022/03/31 11:27:37;;;;;;;19.27;15.20;;;;;;;14.04;45.38;98515.16;5013093;28;20045;-52
2022/03/31 11:30:07;;;;;;;16.95;13.85;;;;;;;13.86;46.11;98517.78;5010173;28;20064;-52
2022/03/31 11:32:35;;;;;;;21.50;14.68;;;;;;;13.66;45.97;98509.59;5008757;28;20053;-50
2022/03/31 11:35:03;;;;;;;19.88;15.27;;;;;;;13.64;46.75;98516.75;5011908;28;20068;-52
2022/03/31 11:37:31;;;;;;;17.70;14.35;;;;;;;13.54;46.56;98512.63;5005973;28;20065;-51